sensor_id;sensor_type;location;lat;lon;timestamp;pressure;altitude;pressure_sealevel;temperature;humidity
12077;BME280;12420;42.676;23.262;2022-09-06T00:01:55;95251.03;;;16.36;100.00
12077;BME280;12420;42.676;23.262;2022-09-06T00:04:22;95256.34;;;16.55;100.00
12077;BME280;12420;42.676;23.262;2022-09-06T00:06:49;95263.63;;;16.58;100.00
12077;BME280;12420;42.676;23.262;2022-09-06T00:09:16;95261.84;;;16.39;100.00
12077;BME280;12420;42.676;23.262;2022-09-06T00:11:42;95250.41;;;16.22;100.00
12077;BME280;12420;42.676;23.262;2022-09-06T00:14:11;95259.59;;;16.38;100.00
12077;BME280;12420;42.676;23.262;2022-09-06T00:16:37;95245.38;;;16.28;100.00
12077;BME280;12420;42.676;23.262;2022-09-06T00:19:05;95219.44;;;16.12;100.00
12077;BME280;12420;42.676;23.262;2022-09-06T00:21:31;95253.47;;;16.39;100.00
12077;BME280;12420;42.676;23.262;2022-09-06T00:24:00;95264.84;;;16.41;100.00
12077;BME280;12420;42.676;23.262;2022-09-06T00:26:28;95269.50;;;16.39;100.00
12077;BME280;12420;42.676;23.262;2022-09-06T00:28:55;95255.44;;;16.23;100.00
12077;BME280;12420;42.676;23.262;2022-09-06T00:31:25;95244.22;;;16.16;100.00
12077;BME280;12420;42.676;23.262;2022-09-06T00:33:52;95256.84;;;16.09;100.00
12077;BME280;12420;42.676;23.262;2022-09-06T00:36:22;95242.63;;;15.99;100.00
12077;BME280;12420;42.676;23.262;2022-09-06T00:38:49;95256.72;;;16.22;100.00
12077;BME280;12420;42.676;23.262;2022-09-06T00:41:16;95218.41;;;15.94;100.00
12077;BME280;12420;42.676;23.262;2022-09-06T00:43:43;95255.44;;;16.23;100.00
12077;BME280;12420;42.676;23.262;2022-09-06T00:46:14;95230.72;;;15.99;100.00
12077;BME280;12420;42.676;23.262;2022-09-06T00:48:44;95270.09;;;16.16;100.00
12077;BME280;12420;42.676;23.262;2022-09-06T00:51:14;95190.47;;;15.66;100.00
12077;BME280;12420;42.676;23.262;2022-09-06T00:53:42;95231.78;;;15.88;100.00
12077;BME280;12420;42.676;23.262;2022-09-06T00:56:10;95242.28;;;16.03;100.00
12077;BME280;12420;42.676;23.262;2022-09-06T00:58:37;95250.22;;;15.91;100.00
12077;BME280;12420;42.676;23.262;2022-09-06T01:01:04;95254.59;;;16.08;100.00
12077;BME280;12420;42.676;23.262;2022-09-06T01:03:32;95175.41;;;15.40;100.00
12077;BME280;12420;42.676;23.262;2022-09-06T01:06:10;95219.81;;;15.80;100.00
12077;BME280;12420;42.676;23.262;2022-09-06T01:08:51;95214.19;;;15.72;100.00
12077;BME280;12420;42.676;23.262;2022-09-06T01:11:36;95189.03;;;15.51;100.00
12077;BME280;12420;42.676;23.262;2022-09-06T01:14:15;95251.94;;;16.02;100.00
12077;BME280;12420;42.676;23.262;2022-09-06T01:16:54;95252.69;;;16.02;100.00
12077;BME280;12420;42.676;23.262;2022-09-06T01:19:37;95251.22;;;16.01;100.00
12077;BME280;12420;42.676;23.262;2022-09-06T01:22:25;95250.63;;;15.95;100.00
12077;BME280;12420;42.676;23.262;2022-09-06T01:30:51;95256.69;;;15.86;100.00
12077;BME280;12420;42.676;23.262;2022-09-06T01:33:25;95235.78;;;15.79;100.00
12077;BME280;12420;42.676;23.262;2022-09-06T01:36:00;95184.94;;;15.03;100.00
12077;BME280;12420;42.676;23.262;2022-09-06T01:38:29;95248.47;;;15.80;100.00
12077;BME280;12420;42.676;23.262;2022-09-06T01:40:56;95196.81;;;15.45;100.00
12077;BME280;12420;42.676;23.262;2022-09-06T01:43:26;95242.47;;;15.76;100.00
12077;BME280;12420;42.676;23.262;2022-09-06T01:45:59;95246.88;;;15.72;100.00
12077;BME280;12420;42.676;23.262;2022-09-06T01:48:38;95246.22;;;15.79;100.00
12077;BME280;12420;42.676;23.262;2022-09-06T01:51:18;95221.16;;;15.66;100.00
12077;BME280;12420;42.676;23.262;2022-09-06T01:54:00;95211.78;;;15.55;100.00
12077;BME280;12420;42.676;23.262;2022-09-06T01:56:39;95158.81;;;15.13;100.00
12077;BME280;12420;42.676;23.262;2022-09-06T01:59:23;95201.97;;;15.41;100.00
12077;BME280;12420;42.676;23.262;2022-09-06T02:02:01;95228.31;;;15.53;100.00
12077;BME280;12420;42.676;23.262;2022-09-06T02:04:34;95232.25;;;15.58;100.00
12077;BME280;12420;42.676;23.262;2022-09-06T02:07:06;95234.31;;;15.57;100.00
12077;BME280;12420;42.676;23.262;2022-09-06T02:09:38;95240.78;;;15.52;100.00
12077;BME280;12420;42.676;23.262;2022-09-06T02:12:07;95114.28;;;14.58;100.00
12077;BME280;12420;42.676;23.262;2022-09-06T02:14:42;95222.53;;;15.51;100.00
12077;BME280;12420;42.676;23.262;2022-09-06T02:17:14;95186.41;;;14.83;100.00
12077;BME280;12420;42.676;23.262;2022-09-06T02:19:45;95229.19;;;15.48;100.00
12077;BME280;12420;42.676;23.262;2022-09-06T02:22:17;95194.78;;;15.25;100.00
12077;BME280;12420;42.676;23.262;2022-09-06T02:24:48;95226.06;;;15.52;100.00
12077;BME280;12420;42.676;23.262;2022-09-06T02:27:17;95210.00;;;15.24;100.00
12077;BME280;12420;42.676;23.262;2022-09-06T02:29:45;95234.09;;;15.55;100.00
12077;BME280;12420;42.676;23.262;2022-09-06T02:32:15;95166.22;;;15.11;100.00
12077;BME280;12420;42.676;23.262;2022-09-06T02:34:43;95188.66;;;15.26;100.00
12077;BME280;12420;42.676;23.262;2022-09-06T02:37:11;95230.69;;;15.49;100.00
12077;BME280;12420;42.676;23.262;2022-09-06T02:39:38;95233.81;;;15.46;100.00
12077;BME280;12420;42.676;23.262;2022-09-06T02:42:06;95234.19;;;15.42;100.00
12077;BME280;12420;42.676;23.262;2022-09-06T02:44:34;95207.22;;;15.24;100.00
12077;BME280;12420;42.676;23.262;2022-09-06T02:47:03;95201.78;;;15.18;100.00
12077;BME280;12420;42.676;23.262;2022-09-06T02:49:30;95240.41;;;15.56;100.00
12077;BME280;12420;42.676;23.262;2022-09-06T02:51:57;95242.47;;;15.55;100.00
12077;BME280;12420;42.676;23.262;2022-09-06T02:54:24;95249.75;;;15.58;100.00
12077;BME280;12420;42.676;23.262;2022-09-06T02:56:51;95236.69;;;15.53;100.00
12077;BME280;12420;42.676;23.262;2022-09-06T02:59:17;95243.34;;;15.50;100.00
12077;BME280;12420;42.676;23.262;2022-09-06T03:01:44;95208.31;;;15.20;100.00
12077;BME280;12420;42.676;23.262;2022-09-06T03:04:12;95221.16;;;15.24;100.00
12077;BME280;12420;42.676;23.262;2022-09-06T03:06:39;95234.44;;;15.31;100.00
12077;BME280;12420;42.676;23.262;2022-09-06T03:09:06;95200.78;;;15.08;100.00
12077;BME280;12420;42.676;23.262;2022-09-06T03:11:34;95195.47;;;14.96;100.00
12077;BME280;12420;42.676;23.262;2022-09-06T03:14:01;95220.41;;;15.02;100.00
12077;BME280;12420;42.676;23.262;2022-09-06T03:16:28;95230.03;;;15.14;100.00
12077;BME280;12420;42.676;23.262;2022-09-06T03:18:55;95230.09;;;15.22;100.00
12077;BME280;12420;42.676;23.262;2022-09-06T03:21:23;95254.09;;;15.25;100.00
12077;BME280;12420;42.676;23.262;2022-09-06T03:23:50;95096.38;;;14.19;100.00
12077;BME280;12420;42.676;23.262;2022-09-06T03:26:17;95158.84;;;14.45;100.00
12077;BME280;12420;42.676;23.262;2022-09-06T03:28:44;95232.88;;;15.01;100.00
12077;BME280;12420;42.676;23.262;2022-09-06T03:31:10;95243.00;;;15.33;100.00
12077;BME280;12420;42.676;23.262;2022-09-06T03:33:37;95202.75;;;15.00;100.00
12077;BME280;12420;42.676;23.262;2022-09-06T03:36:05;95223.41;;;15.25;100.00
12077;BME280;12420;42.676;23.262;2022-09-06T03:38:33;95200.09;;;14.94;100.00
12077;BME280;12420;42.676;23.262;2022-09-06T03:41:01;95231.56;;;15.02;100.00
12077;BME280;12420;42.676;23.262;2022-09-06T03:43:28;95249.75;;;15.16;100.00
12077;BME280;12420;42.676;23.262;2022-09-06T03:45:57;95235.53;;;15.07;100.00
12077;BME280;12420;42.676;23.262;2022-09-06T03:48:26;95259.41;;;15.15;100.00
12077;BME280;12420;42.676;23.262;2022-09-06T03:50:57;95243.38;;;14.95;100.00
12077;BME280;12420;42.676;23.262;2022-09-06T03:53:26;95261.22;;;15.13;100.00
12077;BME280;12420;42.676;23.262;2022-09-06T03:55:57;95249.16;;;14.97;100.00
12077;BME280;12420;42.676;23.262;2022-09-06T03:58:28;95259.25;;;15.21;100.00
12077;BME280;12420;42.676;23.262;2022-09-06T04:01:03;95256.16;;;15.25;100.00
12077;BME280;12420;42.676;23.262;2022-09-06T04:03:31;95259.16;;;15.27;100.00
12077;BME280;12420;42.676;23.262;2022-09-06T04:05:58;95238.44;;;15.01;100.00
12077;BME280;12420;42.676;23.262;2022-09-06T04:08:25;95267.97;;;15.17;100.00
12077;BME280;12420;42.676;23.262;2022-09-06T04:10:52;95233.94;;;14.98;100.00
12077;BME280;12420;42.676;23.262;2022-09-06T04:13:21;95167.84;;;14.51;100.00
12077;BME280;12420;42.676;23.262;2022-09-06T04:15:48;95207.25;;;14.68;100.00
12077;BME280;12420;42.676;23.262;2022-09-06T04:18:17;95241.84;;;15.07;100.00
12077;BME280;12420;42.676;23.262;2022-09-06T04:20:44;95141.78;;;14.27;100.00
12077;BME280;12420;42.676;23.262;2022-09-06T04:23:13;95243.69;;;15.05;100.00
12077;BME280;12420;42.676;23.262;2022-09-06T04:25:40;95256.41;;;15.13;100.00
12077;BME280;12420;42.676;23.262;2022-09-06T04:28:06;95272.66;;;15.23;100.00
12077;BME280;12420;42.676;23.262;2022-09-06T04:30:35;95258.19;;;15.24;100.00
12077;BME280;12420;42.676;23.262;2022-09-06T04:33:02;95226.41;;;15.06;100.00
12077;BME280;12420;42.676;23.262;2022-09-06T04:35:31;95249.75;;;15.16;100.00
12077;BME280;12420;42.676;23.262;2022-09-06T04:38:00;95257.31;;;15.50;100.00
12077;BME280;12420;42.676;23.262;2022-09-06T04:40:27;95252.81;;;15.47;100.00
12077;BME280;12420;42.676;23.262;2022-09-06T04:42:54;95263.97;;;15.68;100.00
12077;BME280;12420;42.676;23.262;2022-09-06T04:45:21;95206.81;;;15.40;100.00
12077;BME280;12420;42.676;23.262;2022-09-06T04:47:50;95265.22;;;15.80;100.00
12077;BME280;12420;42.676;23.262;2022-09-06T04:50:17;95265.25;;;15.88;100.00
12077;BME280;12420;42.676;23.262;2022-09-06T04:52:44;95262.22;;;16.07;100.00
12077;BME280;12420;42.676;23.262;2022-09-06T04:55:12;95263.38;;;16.12;100.00
12077;BME280;12420;42.676;23.262;2022-09-06T04:57:41;95275.75;;;15.95;100.00
12077;BME280;12420;42.676;23.262;2022-09-06T05:00:09;95258.44;;;16.33;100.00
12077;BME280;12420;42.676;23.262;2022-09-06T05:02:36;95257.94;;;16.42;100.00
12077;BME280;12420;42.676;23.262;2022-09-06T05:05:05;95268.06;;;16.53;100.00
12077;BME280;12420;42.676;23.262;2022-09-06T05:07:32;95260.66;;;16.63;100.00
12077;BME280;12420;42.676;23.262;2022-09-06T05:09:59;95228.91;;;16.45;100.00
12077;BME280;12420;42.676;23.262;2022-09-06T05:12:27;95266.22;;;16.92;100.00
12077;BME280;12420;42.676;23.262;2022-09-06T05:14:54;95226.13;;;16.45;100.00
12077;BME280;12420;42.676;23.262;2022-09-06T05:17:21;95186.78;;;16.43;100.00
12077;BME280;12420;42.676;23.262;2022-09-06T05:19:48;95274.84;;;17.17;100.00
12077;BME280;12420;42.676;23.262;2022-09-06T05:22:16;95199.00;;;16.61;100.00
12077;BME280;12420;42.676;23.262;2022-09-06T05:24:43;95241.25;;;17.02;100.00
12077;BME280;12420;42.676;23.262;2022-09-06T05:27:10;95167.63;;;16.47;100.00
12077;BME280;12420;42.676;23.262;2022-09-06T05:29:38;95270.41;;;17.29;100.00
12077;BME280;12420;42.676;23.262;2022-09-06T05:32:05;95227.88;;;17.23;100.00
12077;BME280;12420;42.676;23.262;2022-09-06T05:34:32;95190.75;;;17.15;100.00
12077;BME280;12420;42.676;23.262;2022-09-06T05:36:59;95275.69;;;17.71;100.00
12077;BME280;12420;42.676;23.262;2022-09-06T05:39:27;95269.53;;;17.81;100.00
12077;BME280;12420;42.676;23.262;2022-09-06T05:41:54;95268.22;;;17.66;100.00
12077;BME280;12420;42.676;23.262;2022-09-06T05:44:20;95269.69;;;17.67;100.00
12077;BME280;12420;42.676;23.262;2022-09-06T05:46:47;95229.75;;;17.36;100.00
12077;BME280;12420;42.676;23.262;2022-09-06T05:49:14;95222.47;;;17.33;100.00
12077;BME280;12420;42.676;23.262;2022-09-06T05:51:41;95250.84;;;17.60;100.00
12077;BME280;12420;42.676;23.262;2022-09-06T05:54:09;95240.56;;;17.55;100.00
12077;BME280;12420;42.676;23.262;2022-09-06T05:56:38;95268.78;;;17.80;100.00
12077;BME280;12420;42.676;23.262;2022-09-06T05:59:04;95223.03;;;17.47;100.00
12077;BME280;12420;42.676;23.262;2022-09-06T06:01:31;95237.03;;;17.62;100.00
12077;BME280;12420;42.676;23.262;2022-09-06T06:03:59;95264.13;;;17.83;100.00
12077;BME280;12420;42.676;23.262;2022-09-06T06:06:28;95259.44;;;17.93;100.00
12077;BME280;12420;42.676;23.262;2022-09-06T06:08:55;95254.59;;;18.01;100.00
12077;BME280;12420;42.676;23.262;2022-09-06T06:11:24;95208.88;;;17.83;100.00
12077;BME280;12420;42.676;23.262;2022-09-06T06:13:53;95210.34;;;18.07;100.00
12077;BME280;12420;42.676;23.262;2022-09-06T06:16:21;95238.50;;;18.25;100.00
12077;BME280;12420;42.676;23.262;2022-09-06T06:18:49;95236.38;;;18.48;100.00
12077;BME280;12420;42.676;23.262;2022-09-06T06:21:18;95256.13;;;18.65;100.00
12077;BME280;12420;42.676;23.262;2022-09-06T06:23:48;95246.97;;;18.65;100.00
12077;BME280;12420;42.676;23.262;2022-09-06T06:26:16;95213.38;;;18.57;100.00
12077;BME280;12420;42.676;23.262;2022-09-06T06:28:43;95244.88;;;18.81;100.00
12077;BME280;12420;42.676;23.262;2022-09-06T06:31:11;95251.59;;;18.85;100.00
12077;BME280;12420;42.676;23.262;2022-09-06T06:33:39;95210.66;;;18.75;100.00
12077;BME280;12420;42.676;23.262;2022-09-06T06:36:17;95249.94;;;19.15;100.00
12077;BME280;12420;42.676;23.262;2022-09-06T06:38:50;95251.03;;;19.20;100.00
12077;BME280;12420;42.676;23.262;2022-09-06T06:41:19;95235.53;;;19.19;100.00
12077;BME280;12420;42.676;23.262;2022-09-06T06:43:50;95237.69;;;18.95;100.00
12077;BME280;12420;42.676;23.262;2022-09-06T06:46:19;95261.97;;;19.00;100.00
12077;BME280;12420;42.676;23.262;2022-09-06T06:48:46;95180.06;;;18.61;100.00
12077;BME280;12420;42.676;23.262;2022-09-06T06:51:15;95234.06;;;19.10;100.00
12077;BME280;12420;42.676;23.262;2022-09-06T06:53:42;95249.56;;;19.19;100.00
12077;BME280;12420;42.676;23.262;2022-09-06T06:56:14;95236.94;;;19.27;100.00
12077;BME280;12420;42.676;23.262;2022-09-06T06:58:41;95166.00;;;18.77;100.00
12077;BME280;12420;42.676;23.262;2022-09-06T07:01:10;95172.25;;;18.93;100.00
12077;BME280;12420;42.676;23.262;2022-09-06T07:03:39;95222.75;;;19.50;100.00
12077;BME280;12420;42.676;23.262;2022-09-06T07:06:07;95257.91;;;19.84;100.00
12077;BME280;12420;42.676;23.262;2022-09-06T07:08:35;95259.22;;;19.83;100.00
12077;BME280;12420;42.676;23.262;2022-09-06T07:11:03;95251.28;;;19.72;97.27
12077;BME280;12420;42.676;23.262;2022-09-06T07:13:30;95234.19;;;19.78;97.63
12077;BME280;12420;42.676;23.262;2022-09-06T07:16:09;95264.16;;;19.75;96.73
12077;BME280;12420;42.676;23.262;2022-09-06T07:18:41;95263.88;;;19.88;96.24
12077;BME280;12420;42.676;23.262;2022-09-06T07:21:12;95263.25;;;19.98;96.06
12077;BME280;12420;42.676;23.262;2022-09-06T07:23:39;95234.69;;;19.84;96.58
12077;BME280;12420;42.676;23.262;2022-09-06T07:26:07;95276.75;;;20.34;91.96
12077;BME280;12420;42.676;23.262;2022-09-06T07:28:33;95272.78;;;20.37;92.31
12077;BME280;12420;42.676;23.262;2022-09-06T07:31:00;95267.59;;;20.33;92.40
12077;BME280;12420;42.676;23.262;2022-09-06T07:33:27;95245.94;;;20.44;93.13
12077;BME280;12420;42.676;23.262;2022-09-06T07:36:07;95239.66;;;20.35;92.12
12077;BME280;12420;42.676;23.262;2022-09-06T07:38:35;95253.13;;;20.54;89.70
12077;BME280;12420;42.676;23.262;2022-09-06T07:41:06;95262.78;;;20.78;91.47
12077;BME280;12420;42.676;23.262;2022-09-06T07:43:34;95209.94;;;20.42;90.86
12077;BME280;12420;42.676;23.262;2022-09-06T07:46:02;95245.34;;;20.80;87.35
12077;BME280;12420;42.676;23.262;2022-09-06T07:48:32;95209.88;;;20.67;86.33
12077;BME280;12420;42.676;23.262;2022-09-06T07:51:06;95261.91;;;21.20;87.24
12077;BME280;12420;42.676;23.262;2022-09-06T07:53:34;95276.97;;;21.15;89.95
12077;BME280;12420;42.676;23.262;2022-09-06T07:56:03;95253.34;;;21.28;83.44
12077;BME280;12420;42.676;23.262;2022-09-06T07:58:31;95262.50;;;21.46;84.36
12077;BME280;12420;42.676;23.262;2022-09-06T08:01:16;95266.97;;;21.49;83.04
12077;BME280;12420;42.676;23.262;2022-09-06T08:03:44;95263.31;;;21.56;84.06
12077;BME280;12420;42.676;23.262;2022-09-06T08:06:13;95266.63;;;21.72;83.28
12077;BME280;12420;42.676;23.262;2022-09-06T08:08:40;95205.38;;;21.36;82.79
12077;BME280;12420;42.676;23.262;2022-09-06T08:11:07;95264.41;;;21.80;82.78
12077;BME280;12420;42.676;23.262;2022-09-06T08:13:36;95210.69;;;21.32;80.26
12077;BME280;12420;42.676;23.262;2022-09-06T08:16:07;95228.94;;;21.67;82.29
12077;BME280;12420;42.676;23.262;2022-09-06T08:18:35;95221.63;;;21.55;80.10
12077;BME280;12420;42.676;23.262;2022-09-06T08:21:08;95252.13;;;21.76;80.39
12077;BME280;12420;42.676;23.262;2022-09-06T08:23:37;95175.97;;;20.92;80.96
12077;BME280;12420;42.676;23.262;2022-09-06T08:26:07;95253.16;;;21.80;80.32
12077;BME280;12420;42.676;23.262;2022-09-06T08:28:36;95217.78;;;21.50;80.32
12077;BME280;12420;42.676;23.262;2022-09-06T08:31:07;95238.97;;;21.98;79.96
12077;BME280;12420;42.676;23.262;2022-09-06T08:33:37;95228.56;;;21.81;78.34
12077;BME280;12420;42.676;23.262;2022-09-06T08:36:04;95245.38;;;21.98;79.02
12077;BME280;12420;42.676;23.262;2022-09-06T08:38:34;95239.16;;;22.09;78.11
12077;BME280;12420;42.676;23.262;2022-09-06T08:41:08;95237.97;;;22.13;76.99
12077;BME280;12420;42.676;23.262;2022-09-06T08:43:36;95224.44;;;22.01;76.83
12077;BME280;12420;42.676;23.262;2022-09-06T08:46:06;95239.47;;;22.14;78.92
12077;BME280;12420;42.676;23.262;2022-09-06T08:48:34;95199.09;;;22.01;76.37
12077;BME280;12420;42.676;23.262;2022-09-06T08:51:41;95219.31;;;22.27;77.81
12077;BME280;12420;42.676;23.262;2022-09-06T08:54:16;95210.41;;;22.21;76.05
12077;BME280;12420;42.676;23.262;2022-09-06T08:56:58;95228.81;;;22.41;73.71
12077;BME280;12420;42.676;23.262;2022-09-06T08:59:35;95193.78;;;22.25;75.66
12077;BME280;12420;42.676;23.262;2022-09-06T09:02:09;95151.28;;;21.84;75.12
12077;BME280;12420;42.676;23.262;2022-09-06T09:04:41;95206.25;;;22.22;76.69
12077;BME280;12420;42.676;23.262;2022-09-06T09:07:23;95210.09;;;22.36;75.49
12077;BME280;12420;42.676;23.262;2022-09-06T09:09:55;95202.69;;;22.50;72.37
12077;BME280;12420;42.676;23.262;2022-09-06T09:12:26;95199.41;;;22.64;73.74
12077;BME280;12420;42.676;23.262;2022-09-06T09:15:00;95174.34;;;22.48;74.47
12077;BME280;12420;42.676;23.262;2022-09-06T09:17:30;95193.31;;;22.87;72.26
12077;BME280;12420;42.676;23.262;2022-09-06T09:19:58;95192.00;;;22.98;71.26
12077;BME280;12420;42.676;23.262;2022-09-06T09:22:24;95166.91;;;22.82;67.58
12077;BME280;12420;42.676;23.262;2022-09-06T09:24:51;95119.53;;;22.51;69.82
12077;BME280;12420;42.676;23.262;2022-09-06T09:27:21;95147.00;;;22.80;68.65
12077;BME280;12420;42.676;23.262;2022-09-06T09:29:59;95182.31;;;23.10;67.63
12077;BME280;12420;42.676;23.262;2022-09-06T09:32:31;95173.78;;;23.20;68.56
12077;BME280;12420;42.676;23.262;2022-09-06T09:35:18;95162.41;;;23.08;67.69
12077;BME280;12420;42.676;23.262;2022-09-06T09:37:45;95170.69;;;23.16;67.65
12077;BME280;12420;42.676;23.262;2022-09-06T09:40:14;95164.13;;;23.23;66.91
12077;BME280;12420;42.676;23.262;2022-09-06T09:42:46;95162.47;;;23.20;67.55
12077;BME280;12420;42.676;23.262;2022-09-06T09:45:25;95120.22;;;23.01;67.15
12077;BME280;12420;42.676;23.262;2022-09-06T09:47:58;95134.16;;;23.08;65.01
12077;BME280;12420;42.676;23.262;2022-09-06T09:50:44;95119.19;;;22.86;66.24
12077;BME280;12420;42.676;23.262;2022-09-06T09:53:14;95159.97;;;23.24;65.05
12077;BME280;12420;42.676;23.262;2022-09-06T09:55:41;95167.19;;;23.37;63.81
12077;BME280;12420;42.676;23.262;2022-09-06T09:58:19;95158.19;;;23.50;63.51
12077;BME280;12420;42.676;23.262;2022-09-06T10:00:49;95096.47;;;23.25;64.51
12077;BME280;12420;42.676;23.262;2022-09-06T10:03:34;95152.00;;;23.73;63.38
12077;BME280;12420;42.676;23.262;2022-09-06T10:06:01;95114.59;;;23.32;61.58
12077;BME280;12420;42.676;23.262;2022-09-06T10:08:29;95118.94;;;23.23;63.34
12077;BME280;12420;42.676;23.262;2022-09-06T10:10:58;95101.19;;;23.32;62.29
12077;BME280;12420;42.676;23.262;2022-09-06T10:13:26;95138.91;;;23.47;62.48
12077;BME280;12420;42.676;23.262;2022-09-06T10:15:57;95144.19;;;23.62;62.44
12077;BME280;12420;42.676;23.262;2022-09-06T10:18:29;95123.56;;;23.50;59.90
12077;BME280;12420;42.676;23.262;2022-09-06T10:20:58;95096.56;;;23.37;61.20
12077;BME280;12420;42.676;23.262;2022-09-06T10:23:32;95108.38;;;23.55;59.78
12077;BME280;12420;42.676;23.262;2022-09-06T10:26:04;95131.50;;;23.63;60.30
12077;BME280;12420;42.676;23.262;2022-09-06T10:28:33;95133.25;;;23.78;60.68
12077;BME280;12420;42.676;23.262;2022-09-06T10:31:28;95123.63;;;23.93;58.31
12077;BME280;12420;42.676;23.262;2022-09-06T10:37:09;95128.91;;;23.87;55.06
12077;BME280;12420;42.676;23.262;2022-09-06T10:39:47;95116.56;;;23.82;54.94
12077;BME280;12420;42.676;23.262;2022-09-06T10:42:21;95022.78;;;23.21;54.92
12077;BME280;12420;42.676;23.262;2022-09-06T10:45:12;95115.22;;;24.04;56.75
12077;BME280;12420;42.676;23.262;2022-09-06T10:47:56;95116.09;;;24.07;55.46
12077;BME280;12420;42.676;23.262;2022-09-06T10:50:32;95099.66;;;23.94;52.90
12077;BME280;12420;42.676;23.262;2022-09-06T10:53:09;95077.94;;;23.75;52.64
12077;BME280;12420;42.676;23.262;2022-09-06T10:55:39;95106.34;;;24.32;55.48
12077;BME280;12420;42.676;23.262;2022-09-06T10:58:09;95011.63;;;23.66;50.64
12077;BME280;12420;42.676;23.262;2022-09-06T11:00:41;95106.88;;;24.40;51.23
12077;BME280;12420;42.676;23.262;2022-09-06T11:03:17;95097.44;;;24.47;50.46
12077;BME280;12420;42.676;23.262;2022-09-06T11:05:51;95101.91;;;24.50;49.89
12077;BME280;12420;42.676;23.262;2022-09-06T11:08:23;95097.72;;;24.51;47.74
12077;BME280;12420;42.676;23.262;2022-09-06T11:10:53;95089.38;;;24.53;48.33
12077;BME280;12420;42.676;23.262;2022-09-06T11:13:22;95050.63;;;24.34;48.08
12077;BME280;12420;42.676;23.262;2022-09-06T11:15:53;95091.75;;;24.68;49.49
12077;BME280;12420;42.676;23.262;2022-09-06T11:18:27;95065.00;;;24.48;47.78
12077;BME280;12420;42.676;23.262;2022-09-06T11:21:13;95072.66;;;24.69;46.06
12077;BME280;12420;42.676;23.262;2022-09-06T11:23:47;95047.72;;;24.44;47.18
12077;BME280;12420;42.676;23.262;2022-09-06T11:26:35;95094.09;;;24.84;48.53
12077;BME280;12420;42.676;23.262;2022-09-06T11:29:15;95066.41;;;24.71;48.68
12077;BME280;12420;42.676;23.262;2022-09-06T11:31:51;95094.97;;;24.98;47.02
12077;BME280;12420;42.676;23.262;2022-09-06T11:34:22;95060.59;;;24.80;44.52
12077;BME280;12420;42.676;23.262;2022-09-06T11:36:50;95082.88;;;24.74;45.21
12077;BME280;12420;42.676;23.262;2022-09-06T11:39:27;95083.53;;;24.84;46.24
12077;BME280;12420;42.676;23.262;2022-09-06T11:41:55;95079.59;;;25.01;47.00
12077;BME280;12420;42.676;23.262;2022-09-06T11:44:50;95063.59;;;25.06;43.63
12077;BME280;12420;42.676;23.262;2022-09-06T11:47:35;95070.47;;;25.03;43.71
12077;BME280;12420;42.676;23.262;2022-09-06T11:53:20;95066.59;;;25.20;42.77
12077;BME280;12420;42.676;23.262;2022-09-06T11:55:49;95046.13;;;25.21;43.42
12077;BME280;12420;42.676;23.262;2022-09-06T11:58:22;95051.31;;;25.37;41.80
12077;BME280;12420;42.676;23.262;2022-09-06T12:04:02;95039.50;;;25.17;40.31
12077;BME280;12420;42.676;23.262;2022-09-06T12:06:32;95048.34;;;25.23;40.68
12077;BME280;12420;42.676;23.262;2022-09-06T12:09:30;95031.56;;;25.15;41.96
12077;BME280;12420;42.676;23.262;2022-09-06T12:11:58;95029.97;;;25.24;42.04
12077;BME280;12420;42.676;23.262;2022-09-06T12:14:31;95019.28;;;25.34;42.03
12077;BME280;12420;42.676;23.262;2022-09-06T12:17:21;95024.31;;;25.47;39.70
12077;BME280;12420;42.676;23.262;2022-09-06T12:19:51;94993.53;;;25.30;39.72
12077;BME280;12420;42.676;23.262;2022-09-06T12:26:02;95041.25;;;25.71;40.53
12077;BME280;12420;42.676;23.262;2022-09-06T12:28:38;95024.66;;;25.53;43.14
12077;BME280;12420;42.676;23.262;2022-09-06T12:31:27;95028.13;;;25.52;42.41
12077;BME280;12420;42.676;23.262;2022-09-06T12:33:57;95024.94;;;25.34;42.32
12077;BME280;12420;42.676;23.262;2022-09-06T12:36:26;95023.06;;;25.50;42.58
12077;BME280;12420;42.676;23.262;2022-09-06T12:38:56;95016.06;;;25.40;43.24
12077;BME280;12420;42.676;23.262;2022-09-06T12:41:26;94979.13;;;25.26;45.66
12077;BME280;12420;42.676;23.262;2022-09-06T12:43:54;95024.69;;;25.42;47.09
12077;BME280;12420;42.676;23.262;2022-09-06T12:46:23;94997.59;;;24.91;48.47
12077;BME280;12420;42.676;23.262;2022-09-06T12:49:06;95030.94;;;24.93;47.86
12077;BME280;12420;42.676;23.262;2022-09-06T12:51:34;94970.00;;;24.45;48.40
12077;BME280;12420;42.676;23.262;2022-09-06T12:54:17;94999.28;;;24.50;49.38
12077;BME280;12420;42.676;23.262;2022-09-06T12:56:47;95009.00;;;24.46;48.98
12077;BME280;12420;42.676;23.262;2022-09-06T12:59:16;95012.75;;;24.27;49.68
12077;BME280;12420;42.676;23.262;2022-09-06T13:01:51;94995.53;;;23.90;50.51
12077;BME280;12420;42.676;23.262;2022-09-06T13:04:26;94992.41;;;23.74;51.52
12077;BME280;12420;42.676;23.262;2022-09-06T13:06:55;95017.56;;;23.92;51.40
12077;BME280;12420;42.676;23.262;2022-09-06T13:09:26;94937.25;;;23.52;51.34
12077;BME280;12420;42.676;23.262;2022-09-06T13:12:02;94941.25;;;23.70;51.72
12077;BME280;12420;42.676;23.262;2022-09-06T13:14:31;94986.53;;;24.15;52.54
12077;BME280;12420;42.676;23.262;2022-09-06T13:16:59;94983.94;;;24.19;50.71
12077;BME280;12420;42.676;23.262;2022-09-06T13:19:31;94966.97;;;24.08;50.54
12077;BME280;12420;42.676;23.262;2022-09-06T13:21:59;95013.97;;;24.58;51.19
12077;BME280;12420;42.676;23.262;2022-09-06T13:24:40;94950.50;;;24.16;50.13